createdAt,value
2022-08-10T00:00:27.044Z,6.90
2022-08-10T00:03:11.533Z,6.40
2022-08-10T00:05:52.825Z,6.50
2022-08-10T00:08:27.882Z,6.70
2022-08-10T00:11:01.866Z,6.70
2022-08-10T00:13:37.560Z,6.50
2022-08-10T00:16:11.608Z,6.20
2022-08-10T00:18:45.335Z,6.00
2022-08-10T00:21:19.341Z,6.40
2022-08-10T00:23:52.933Z,6.00
2022-08-10T00:26:26.414Z,5.30
2022-08-10T00:29:20.781Z,5.20
2022-08-10T00:31:57.689Z,5.50
2022-08-10T00:34:33.681Z,5.50
2022-08-10T00:37:07.575Z,6.10
2022-08-10T00:39:41.336Z,5.50
2022-08-10T00:42:16.389Z,5.80
2022-08-10T00:44:51.565Z,6.20
2022-08-10T00:47:36.996Z,5.60
2022-08-10T00:50:12.955Z,5.40
2022-08-10T00:52:46.809Z,5.20
2022-08-10T00:55:20.655Z,5.40
2022-08-10T00:57:55.327Z,5.40
2022-08-10T01:00:32.451Z,5.60
2022-08-10T01:03:05.690Z,6.30
2022-08-10T01:05:51.746Z,6.50
2022-08-10T01:08:33.444Z,5.70
2022-08-10T01:12:39.594Z,6.00
2022-08-10T01:14:15.733Z,5.40
2022-08-10T01:16:55.436Z,5.20
2022-08-10T01:19:50.387Z,5.70
2022-08-10T01:22:39.575Z,5.70
2022-08-10T01:26:10.365Z,6.00
2022-08-10T01:28:53.056Z,6.70
2022-08-10T01:31:32.235Z,6.10
2022-08-10T01:34:12.048Z,6.20
2022-08-10T01:36:50.590Z,6.90
2022-08-10T01:39:30.371Z,6.70
2022-08-10T01:42:05.091Z,5.20
2022-08-10T01:44:43.904Z,5.60
2022-08-10T01:47:37.674Z,5.80
2022-08-10T01:50:19.828Z,6.20
2022-08-10T01:52:56.594Z,5.80
2022-08-10T01:55:30.884Z,6.30
2022-08-10T01:58:07.028Z,5.50
2022-08-10T02:00:42.336Z,5.20
2022-08-10T02:03:17.204Z,5.10
2022-08-10T02:05:55.851Z,5.10
2022-08-10T02:11:03.331Z,4.80
2022-08-10T02:13:38.732Z,5.10
2022-08-10T02:16:15.359Z,5.60
2022-08-10T02:18:49.996Z,4.80
2022-08-10T02:21:25.652Z,4.50
2022-08-10T02:24:01.615Z,4.60
2022-08-10T02:26:36.617Z,5.20
2022-08-10T02:29:12.973Z,4.50
2022-08-10T02:31:47.814Z,4.90
2022-08-10T02:34:27.842Z,4.60
2022-08-10T02:37:10.976Z,5.20
2022-08-10T02:39:44.575Z,5.20
2022-08-10T02:45:22.694Z,4.60
2022-08-10T02:45:31.137Z,4.10
2022-08-10T02:48:14.803Z,4.70
2022-08-10T02:50:56.889Z,4.30
2022-08-10T02:53:55.420Z,4.40
2022-08-10T02:56:37.575Z,4.40
2022-08-10T02:59:17.554Z,4.70
2022-08-10T03:01:56.409Z,3.90
2022-08-10T03:07:43.173Z,3.80
2022-08-10T03:10:21.568Z,4.10
2022-08-10T03:12:59.159Z,4.00
2022-08-10T03:15:34.977Z,4.30
2022-08-10T03:18:09.983Z,4.40
2022-08-10T03:20:46.481Z,5.00
2022-08-10T03:23:23.733Z,4.30
2022-08-10T03:26:00.426Z,4.60
2022-08-10T03:28:36.069Z,3.80
2022-08-10T03:31:10.655Z,4.20
2022-08-10T03:33:45.581Z,4.20
2022-08-10T03:36:40.242Z,4.70
2022-08-10T03:39:13.492Z,4.50
2022-08-10T03:41:53.556Z,5.10
2022-08-10T03:44:33.443Z,4.60
2022-08-10T03:47:15.951Z,4.50
2022-08-10T03:49:51.240Z,4.40
2022-08-10T03:52:28.289Z,4.40
2022-08-10T03:55:02.185Z,4.40
2022-08-10T03:57:49.606Z,4.50
2022-08-10T04:00:23.712Z,4.50
2022-08-10T04:02:58.353Z,4.60
2022-08-10T04:05:38.657Z,4.20
2022-08-10T04:08:13.132Z,4.20
2022-08-10T04:10:46.559Z,4.40
2022-08-10T04:13:20.221Z,4.80
2022-08-10T04:15:54.112Z,4.50
2022-08-10T04:18:27.373Z,4.60
2022-08-10T04:21:04.363Z,4.60
2022-08-10T04:23:43.176Z,4.30
2022-08-10T04:26:17.299Z,4.50
2022-08-10T04:28:51.027Z,4.50
2022-08-10T04:31:28.392Z,4.40
2022-08-10T04:34:08.715Z,5.30
2022-08-10T04:36:43.650Z,4.90
2022-08-10T04:39:17.638Z,4.80
2022-08-10T04:41:51.219Z,4.30
2022-08-10T04:44:24.759Z,3.90
2022-08-10T04:46:59.403Z,4.70
2022-08-10T04:49:55.344Z,4.80
2022-08-10T04:52:29.534Z,4.20
2022-08-10T04:55:03.216Z,4.30
2022-08-10T04:57:37.384Z,4.30
2022-08-10T05:00:18.067Z,4.40
2022-08-10T05:03:03.690Z,4.80
2022-08-10T05:05:37.185Z,3.80
2022-08-10T05:08:10.761Z,5.00
2022-08-10T05:10:44.177Z,4.20
2022-08-10T05:13:17.728Z,4.00
2022-08-10T05:15:52.396Z,4.30
2022-08-10T05:18:25.851Z,4.80
2022-08-10T05:20:58.860Z,4.80
2022-08-10T05:23:32.434Z,4.70
2022-08-10T05:26:06.169Z,4.50
2022-08-10T05:28:39.915Z,3.80
2022-08-10T05:31:14.688Z,4.00
2022-08-10T05:33:56.455Z,4.00
2022-08-10T05:36:30.190Z,4.60
2022-08-10T05:39:04.913Z,4.10
2022-08-10T05:41:42.883Z,3.90
2022-08-10T05:44:19.284Z,3.90
2022-08-10T05:46:52.935Z,4.30
2022-08-10T05:49:26.474Z,3.40
2022-08-10T05:52:00.176Z,3.80
2022-08-10T05:54:34.168Z,4.20
2022-08-10T05:57:08.311Z,3.80
2022-08-10T06:00:10.885Z,3.90
2022-08-10T06:02:49.094Z,3.60
2022-08-10T06:05:25.783Z,4.10
2022-08-10T06:08:05.745Z,3.80
2022-08-10T06:10:59.765Z,4.30
2022-08-10T06:13:59.714Z,3.50
2022-08-10T06:16:48.898Z,3.50
2022-08-10T06:19:22.549Z,3.30
2022-08-10T06:22:01.340Z,3.70
2022-08-10T06:25:04.651Z,3.80
2022-08-10T06:27:35.574Z,3.30
2022-08-10T06:30:20.588Z,3.10
2022-08-10T06:32:57.223Z,3.00
2022-08-10T06:35:34.007Z,3.70
2022-08-10T06:38:09.440Z,3.30
2022-08-10T06:40:48.892Z,3.20
2022-08-10T06:43:24.848Z,3.40
2022-08-10T06:46:08.759Z,2.80
2022-08-10T06:48:48.644Z,3.60
2022-08-10T06:51:26.320Z,3.50
2022-08-10T06:54:02.917Z,3.50
2022-08-10T06:56:50.900Z,4.20
2022-08-10T06:59:41.081Z,3.50
2022-08-10T07:02:28.418Z,3.50
2022-08-10T07:05:05.880Z,3.60
2022-08-10T07:07:42.543Z,2.70
2022-08-10T07:10:18.243Z,3.90
2022-08-10T07:12:54.609Z,3.20
2022-08-10T07:15:59.415Z,3.20
2022-08-10T07:18:24.611Z,3.10
2022-08-10T07:21:02.307Z,2.90
2022-08-10T07:23:57.350Z,3.30
2022-08-10T07:26:32.541Z,3.30
2022-08-10T07:29:08.064Z,2.60
2022-08-10T07:32:01.602Z,2.40
2022-08-10T07:34:37.528Z,2.00
2022-08-10T07:37:12.256Z,2.10
2022-08-10T07:40:03.908Z,2.70
2022-08-10T07:42:45.497Z,2.00
2022-08-10T07:45:20.140Z,2.00
2022-08-10T07:48:06.731Z,2.30
2022-08-10T07:50:44.416Z,2.50
2022-08-10T07:53:23.521Z,2.40
2022-08-10T07:56:03.554Z,2.40
2022-08-10T07:58:51.834Z,2.40
2022-08-10T08:01:33.825Z,3.00
2022-08-10T08:04:12.111Z,2.30
2022-08-10T08:06:47.200Z,1.90
2022-08-10T08:09:22.190Z,2.40
2022-08-10T08:11:56.325Z,2.30
2022-08-10T08:14:31.648Z,1.90
2022-08-10T08:17:05.607Z,2.00
2022-08-10T08:19:41.108Z,2.50
2022-08-10T08:24:06.419Z,2.50
2022-08-10T08:25:15.273Z,2.20
2022-08-10T08:27:54.075Z,2.70
2022-08-10T08:30:28.114Z,2.50
2022-08-10T08:33:03.026Z,2.30
2022-08-10T08:35:37.524Z,2.50
2022-08-10T08:38:30.289Z,2.60
2022-08-10T08:41:20.815Z,2.20
2022-08-10T08:44:05.167Z,2.60
2022-08-10T08:48:02.144Z,2.30
2022-08-10T08:50:13.581Z,2.40
2022-08-10T08:52:58.564Z,2.40
2022-08-10T08:56:00.753Z,2.60
2022-08-10T08:58:50.710Z,2.70
2022-08-10T09:01:41.304Z,2.20
2022-08-10T09:04:37.859Z,2.60
2022-08-10T09:08:02.082Z,2.00
2022-08-10T09:10:46.298Z,1.90
2022-08-10T09:13:29.838Z,2.50
2022-08-10T09:16:18.501Z,1.80
2022-08-10T09:19:00.258Z,2.20
2022-08-10T09:21:58.696Z,2.30
2022-08-10T09:24:51.589Z,2.20
2022-08-10T09:30:02.439Z,2.50
2022-08-10T09:36:20.492Z,2.10
2022-08-10T09:39:00.561Z,2.00
2022-08-10T09:41:47.349Z,2.90
2022-08-10T09:44:29.656Z,1.70
2022-08-10T09:47:15.782Z,1.60
2022-08-10T09:50:05.058Z,1.60
2022-08-10T09:52:59.204Z,1.60
2022-08-10T09:56:18.538Z,1.70
2022-08-10T09:58:45.145Z,2.00
2022-08-10T10:02:02.727Z,2.10
2022-08-10T10:04:27.705Z,1.80
2022-08-10T10:07:08.257Z,1.80
2022-08-10T10:09:54.066Z,1.80
2022-08-10T10:12:37.900Z,1.80
2022-08-10T10:15:25.324Z,1.90
2022-08-10T10:18:33.661Z,1.90
2022-08-10T10:24:19.936Z,2.00
2022-08-10T10:26:52.438Z,1.90
2022-08-10T10:29:58.110Z,2.00
2022-08-10T10:32:47.024Z,1.90
2022-08-10T10:35:26.398Z,2.30
2022-08-10T10:40:45.885Z,2.10
2022-08-10T10:43:46.586Z,2.00
2022-08-10T10:46:34.910Z,2.00
2022-08-10T10:49:20.910Z,2.30
2022-08-10T10:52:02.389Z,2.30
2022-08-10T10:54:46.580Z,2.50
2022-08-10T10:57:59.202Z,2.20
2022-08-10T11:00:26.706Z,1.70
2022-08-10T11:03:17.488Z,2.20
2022-08-10T11:05:56.921Z,2.20
2022-08-10T11:08:36.971Z,1.90
2022-08-10T11:11:59.889Z,1.90
2022-08-10T11:14:25.224Z,1.60
2022-08-10T11:17:07.283Z,2.00
2022-08-10T11:20:02.361Z,1.80
2022-08-10T11:22:42.599Z,2.30
2022-08-10T11:25:26.029Z,2.10
2022-08-10T11:28:10.404Z,1.70
2022-08-10T11:30:52.398Z,1.80
2022-08-10T11:34:03.858Z,1.70
2022-08-10T11:36:43.105Z,1.70
2022-08-10T11:39:23.292Z,1.50
2022-08-10T11:42:12.278Z,1.60
2022-08-10T11:44:52.878Z,1.40
2022-08-10T11:47:36.425Z,1.90
2022-08-10T11:50:18.121Z,1.50
2022-08-10T11:53:02.366Z,1.80
2022-08-10T11:55:37.742Z,1.80
2022-08-10T11:58:32.612Z,1.80
2022-08-10T12:01:09.496Z,2.30
2022-08-10T12:03:48.766Z,1.70
2022-08-10T12:06:45.464Z,1.60
2022-08-10T12:10:08.981Z,1.70
2022-08-10T12:12:15.034Z,1.50
2022-08-10T12:14:55.652Z,1.30
2022-08-10T12:17:35.812Z,1.70
2022-08-10T12:20:12.373Z,1.60
2022-08-10T12:22:55.914Z,1.60
2022-08-10T12:25:56.579Z,1.60
2022-08-10T12:28:49.833Z,1.30
2022-08-10T12:31:31.685Z,1.50
2022-08-10T12:34:20.653Z,1.60
2022-08-10T12:37:02.676Z,1.60
2022-08-10T12:39:45.815Z,1.60
2022-08-10T12:43:00.626Z,1.60
2022-08-10T12:45:28.906Z,1.50
2022-08-10T12:48:07.315Z,1.60
2022-08-10T12:50:45.221Z,1.50
2022-08-10T12:53:27.935Z,1.70
2022-08-10T12:56:02.372Z,2.00
2022-08-10T12:59:00.445Z,1.50
2022-08-10T13:02:09.727Z,1.60
2022-08-10T13:04:33.135Z,1.50
2022-08-10T13:07:09.295Z,2.60
2022-08-10T13:09:56.185Z,2.20
2022-08-10T13:12:40.296Z,3.00
2022-08-10T13:15:44.896Z,2.50
2022-08-10T13:18:19.496Z,1.80
2022-08-10T13:20:57.664Z,1.80
2022-08-10T13:23:35.579Z,2.30
2022-08-10T13:26:14.719Z,2.20
2022-08-10T13:28:49.924Z,2.20
2022-08-10T13:32:03.446Z,1.80
2022-08-10T13:34:42.809Z,1.90
2022-08-10T13:37:22.351Z,2.10
2022-08-10T13:40:00.760Z,1.80
2022-08-10T13:42:38.293Z,2.10
2022-08-10T13:45:16.078Z,2.10
2022-08-10T13:47:54.822Z,2.10
2022-08-10T13:50:33.310Z,2.00
2022-08-10T13:53:14.710Z,1.80
2022-08-10T13:55:56.526Z,1.60
2022-08-10T13:58:33.422Z,1.60
2022-08-10T14:01:13.527Z,1.60
2022-08-10T14:03:49.585Z,1.80
2022-08-10T14:06:29.561Z,1.40
2022-08-10T14:09:06.427Z,1.90
2022-08-10T14:11:42.568Z,2.00
2022-08-10T14:14:21.977Z,1.70
2022-08-10T14:17:00.391Z,1.80
2022-08-10T14:19:39.364Z,2.00
2022-08-10T14:22:34.270Z,2.00
2022-08-10T14:25:15.227Z,1.50
2022-08-10T14:28:02.116Z,1.30
2022-08-10T14:30:38.661Z,2.10
2022-08-10T14:33:14.938Z,1.60
2022-08-10T14:36:19.562Z,1.70
2022-08-10T14:38:49.126Z,1.50
2022-08-10T14:42:04.190Z,1.70
2022-08-10T14:44:26.658Z,1.60
2022-08-10T14:47:51.414Z,1.80
2022-08-10T14:50:00.570Z,2.20
2022-08-10T14:52:39.818Z,2.30
2022-08-10T14:55:20.150Z,1.90
2022-08-10T14:58:18.964Z,1.90
2022-08-10T15:00:49.299Z,2.10
2022-08-10T15:03:59.565Z,2.10
2022-08-10T15:06:30.307Z,1.80
2022-08-10T15:09:19.435Z,2.40
2022-08-10T15:12:15.571Z,2.40
2022-08-10T15:14:52.045Z,2.00
2022-08-10T15:17:35.021Z,2.10
2022-08-10T15:20:20.522Z,2.20
2022-08-10T15:22:56.672Z,2.00
2022-08-10T15:25:36.359Z,2.20
2022-08-10T15:28:13.598Z,2.10
2022-08-10T15:30:53.190Z,1.90
2022-08-10T15:34:02.606Z,2.30
2022-08-10T15:37:03.882Z,2.40
2022-08-10T15:40:21.396Z,2.30
2022-08-10T15:43:25.367Z,2.60
2022-08-10T15:46:08.125Z,3.50
2022-08-10T15:48:55.008Z,3.50
2022-08-10T15:51:54.123Z,3.70
2022-08-10T15:54:35.318Z,3.90
2022-08-10T15:57:14.818Z,3.80
2022-08-10T15:59:53.550Z,3.10
2022-08-10T16:02:34.179Z,3.10
2022-08-10T16:05:14.533Z,2.90
2022-08-10T16:07:52.539Z,3.10
2022-08-10T16:10:38.710Z,3.10
2022-08-10T16:13:59.555Z,3.30
2022-08-10T16:16:13.380Z,3.20
2022-08-10T16:18:49.595Z,3.60
2022-08-10T16:21:26.016Z,3.00
2022-08-10T16:24:15.670Z,2.40
2022-08-10T16:26:54.947Z,2.40
2022-08-10T16:32:04.667Z,2.40
2022-08-10T16:34:40.318Z,2.40
2022-08-10T16:37:17.483Z,2.90
2022-08-10T16:40:01.112Z,2.70
2022-08-10T16:42:44.343Z,2.90
2022-08-10T16:45:23.807Z,2.40
2022-08-10T16:48:01.019Z,2.70
2022-08-10T16:50:42.116Z,2.90
2022-08-10T16:53:19.233Z,3.00
2022-08-10T16:55:56.630Z,2.70
2022-08-10T16:58:35.143Z,2.20
2022-08-10T17:04:06.365Z,2.60
2022-08-10T17:06:44.525Z,2.50
2022-08-10T17:09:21.385Z,2.40
2022-08-10T17:11:57.008Z,2.70
2022-08-10T17:14:32.669Z,2.60
2022-08-10T17:17:14.615Z,3.90
2022-08-10T17:19:49.344Z,3.60
2022-08-10T17:22:24.987Z,3.10
2022-08-10T17:25:01.783Z,3.40
2022-08-10T17:28:03.969Z,3.70
2022-08-10T17:30:57.566Z,2.90
2022-08-10T17:33:33.168Z,2.60
2022-08-10T17:36:08.993Z,3.30
2022-08-10T17:38:48.423Z,2.80
2022-08-10T17:41:26.407Z,3.80
2022-08-10T17:44:04.773Z,3.50
2022-08-10T17:49:16.227Z,2.60
2022-08-10T17:51:55.245Z,2.90
2022-08-10T17:54:38.527Z,2.90
2022-08-10T17:57:18.821Z,2.70
2022-08-10T17:59:55.369Z,2.80
2022-08-10T18:02:36.643Z,3.20
2022-08-10T18:05:13.289Z,3.00
2022-08-10T18:07:51.855Z,3.50
2022-08-10T18:10:27.127Z,3.40
2022-08-10T18:13:02.482Z,3.80
2022-08-10T18:15:39.515Z,3.60
2022-08-10T18:18:19.022Z,3.90
2022-08-10T18:21:02.769Z,3.10
2022-08-10T18:23:39.670Z,3.10
2022-08-10T18:26:15.774Z,3.10
2022-08-10T18:28:53.400Z,3.20
2022-08-10T18:31:29.547Z,4.00
2022-08-10T18:34:05.220Z,4.40
2022-08-10T18:36:42.480Z,4.00
2022-08-10T18:39:17.585Z,3.90
2022-08-10T18:42:00.639Z,3.20
